createdAt,value
2022-10-29T00:00:32.501Z,8.2
2022-10-29T00:01:48.772Z,7.7
2022-10-29T00:03:05.087Z,9.7
2022-10-29T00:04:21.400Z,8
2022-10-29T00:05:37.653Z,11.8
2022-10-29T00:06:53.969Z,9.9
2022-10-29T00:08:10.278Z,9.4
2022-10-29T00:09:26.548Z,12.1
2022-10-29T00:10:42.858Z,9.1
2022-10-29T00:11:59.120Z,8.4
2022-10-29T00:13:15.416Z,10.3
2022-10-29T00:14:30.727Z,10.3
2022-10-29T00:15:47.021Z,10.3
2022-10-29T00:17:03.323Z,8.7
2022-10-29T00:18:19.632Z,8.8
2022-10-29T00:19:35.898Z,13
2022-10-29T00:20:52.232Z,8.4
2022-10-29T00:22:08.496Z,8.6
2022-10-29T00:23:24.785Z,11.5
2022-10-29T00:24:41.076Z,9
2022-10-29T00:25:57.379Z,9.1
2022-10-29T00:27:13.704Z,9
2022-10-29T00:28:29.988Z,11.6
2022-10-29T00:29:46.280Z,10
2022-10-29T00:31:01.600Z,10.1
2022-10-29T00:32:17.858Z,12.3
2022-10-29T00:33:34.168Z,9.2
2022-10-29T00:34:50.447Z,10.7
2022-10-29T00:36:06.738Z,8.8
2022-10-29T00:37:23.031Z,6.5
2022-10-29T00:38:39.336Z,9.7
2022-10-29T00:39:55.633Z,8.9
2022-10-29T00:41:11.918Z,9.8
2022-10-29T00:42:28.235Z,10.5
2022-10-29T00:43:44.525Z,10.8
2022-10-29T00:45:00.812Z,8.5
2022-10-29T00:46:17.090Z,9.7
2022-10-29T00:47:32.402Z,10.8
2022-10-29T00:48:48.694Z,8.5
2022-10-29T00:50:04.995Z,9
2022-10-29T00:51:21.284Z,9.3
2022-10-29T00:52:37.576Z,10.4
2022-10-29T00:53:53.872Z,8
2022-10-29T00:55:10.167Z,8.4
2022-10-29T00:56:26.468Z,11.5
2022-10-29T00:57:42.766Z,10.3
2022-10-29T00:58:59.055Z,11.6
2022-10-29T01:00:15.346Z,7.4
2022-10-29T01:01:31.656Z,8.6
2022-10-29T01:02:47.928Z,9.6
2022-10-29T01:04:03.274Z,9.4
2022-10-29T01:05:19.547Z,6.8
2022-10-29T01:06:35.831Z,7.8
2022-10-29T01:07:52.127Z,10
2022-10-29T01:09:08.444Z,8.1
2022-10-29T01:10:24.723Z,8.3
2022-10-29T01:11:40.021Z,11.1
2022-10-29T01:12:56.315Z,10.2
2022-10-29T01:14:12.639Z,9.9
2022-10-29T01:15:28.903Z,9
2022-10-29T01:16:45.234Z,9.8
2022-10-29T01:18:01.490Z,8.6
2022-10-29T01:19:17.786Z,9.6
2022-10-29T01:20:34.080Z,9.1
2022-10-29T01:21:50.383Z,10.4
2022-10-29T01:23:06.672Z,10.3
2022-10-29T01:24:22.968Z,7.5
2022-10-29T01:25:39.260Z,11.2
2022-10-29T01:26:55.583Z,7.6
2022-10-29T01:28:10.888Z,8.5
2022-10-29T01:29:27.163Z,9.9
2022-10-29T01:30:43.466Z,8.6
2022-10-29T01:31:59.760Z,7.3
2022-10-29T01:33:16.036Z,8.7
2022-10-29T01:34:32.365Z,8.6
2022-10-29T01:35:48.658Z,9.4
2022-10-29T01:37:04.943Z,8.9
2022-10-29T01:38:21.239Z,8.9
2022-10-29T01:39:37.540Z,8.6
2022-10-29T01:40:53.817Z,8.4
2022-10-29T01:42:10.127Z,9.1
2022-10-29T01:43:26.391Z,10.8
2022-10-29T01:44:41.701Z,9.3
2022-10-29T01:45:58.005Z,8.9
2022-10-29T01:47:14.327Z,7.4
2022-10-29T01:48:30.588Z,7.8
2022-10-29T01:49:46.885Z,8.8
2022-10-29T01:51:03.185Z,11.2
2022-10-29T01:52:19.499Z,10.5
2022-10-29T01:53:35.765Z,8.8
2022-10-29T01:54:52.088Z,9.7
2022-10-29T01:56:08.346Z,8.1
2022-10-29T01:57:24.675Z,9.2
2022-10-29T01:58:40.961Z,7
2022-10-29T01:59:57.235Z,9.3
2022-10-29T02:01:12.573Z,8.9
2022-10-29T02:02:28.858Z,7.9
2022-10-29T02:03:45.142Z,8.9
2022-10-29T02:05:01.457Z,7.6
2022-10-29T02:06:17.717Z,7.8
2022-10-29T02:07:34.034Z,9.1
2022-10-29T02:08:50.312Z,10.2
2022-10-29T02:10:06.624Z,8.8
2022-10-29T02:11:22.890Z,8.3
2022-10-29T02:12:39.185Z,7.2
2022-10-29T02:13:55.515Z,8.2
2022-10-29T02:15:11.778Z,7.1
2022-10-29T02:16:28.063Z,9
2022-10-29T02:17:43.406Z,8.7
2022-10-29T02:18:59.672Z,7.8
2022-10-29T02:20:15.971Z,9.8
2022-10-29T02:21:32.286Z,11
2022-10-29T02:22:48.579Z,10.2
2022-10-29T02:24:04.862Z,10.2
2022-10-29T02:25:21.152Z,8.6
2022-10-29T02:26:37.437Z,8.2
2022-10-29T02:27:53.754Z,9.8
2022-10-29T02:29:10.032Z,11.1
2022-10-29T02:30:26.318Z,7.7
2022-10-29T02:31:42.000Z,8.7
2022-10-29T02:32:58.945Z,10.7
2022-10-29T02:34:14.213Z,10.9
2022-10-29T02:35:30.515Z,8.9
2022-10-29T02:36:46.806Z,10.4
2022-10-29T02:38:03.100Z,9.3
2022-10-29T02:39:19.396Z,10.3
2022-10-29T02:40:35.725Z,7.2
2022-10-29T02:41:51.990Z,8
2022-10-29T02:43:08.302Z,11.1
2022-10-29T02:44:24.605Z,9.3
2022-10-29T02:45:40.870Z,10.1
2022-10-29T02:46:57.158Z,7.9
2022-10-29T02:48:13.481Z,9.7
2022-10-29T02:49:29.760Z,7.6
2022-10-29T02:50:45.076Z,9.3
2022-10-29T02:52:01.345Z,8.6
2022-10-29T02:53:17.665Z,8.8
2022-10-29T02:54:33.945Z,9.3
2022-10-29T02:55:50.228Z,10.6
2022-10-29T02:57:06.552Z,8.2
2022-10-29T02:58:22.818Z,9.9
2022-10-29T02:59:39.154Z,9.2
2022-10-29T03:00:55.409Z,9.9
2022-10-29T03:02:11.714Z,7
2022-10-29T03:03:28.031Z,8.9
2022-10-29T03:04:44.295Z,10.4
2022-10-29T03:06:00.581Z,12
2022-10-29T03:07:15.903Z,8.6
2022-10-29T03:08:32.229Z,8.5
2022-10-29T03:09:48.484Z,9.9
2022-10-29T03:11:04.801Z,8.7
2022-10-29T03:12:21.080Z,10.1
2022-10-29T03:13:37.387Z,8.6
2022-10-29T03:14:53.660Z,11.6
2022-10-29T03:16:09.987Z,10.5
2022-10-29T03:17:26.250Z,8.2
2022-10-29T03:18:42.562Z,8.2
2022-10-29T03:19:58.834Z,10.1
2022-10-29T03:21:15.161Z,11.6
2022-10-29T03:22:31.417Z,9.6
2022-10-29T03:23:46.737Z,10.3
2022-10-29T03:25:03.057Z,9.2
2022-10-29T03:26:19.317Z,10.2
2022-10-29T03:27:35.617Z,8.1
2022-10-29T03:28:51.912Z,8.4
2022-10-29T03:30:08.201Z,9.4
2022-10-29T03:31:24.495Z,8.6
2022-10-29T03:32:40.796Z,9.4
2022-10-29T03:33:57.113Z,8.3
2022-10-29T03:35:13.382Z,10.2
2022-10-29T03:36:29.671Z,9.3
2022-10-29T03:37:46.000Z,10.2
2022-10-29T03:39:02.260Z,10.2
2022-10-29T03:40:17.586Z,9.2
2022-10-29T03:41:33.867Z,9.4
2022-10-29T03:42:50.163Z,13.9
2022-10-29T03:44:06.458Z,10.5
2022-10-29T03:45:22.750Z,9.8
2022-10-29T03:46:39.039Z,11.3
2022-10-29T03:47:55.340Z,8.4
2022-10-29T03:49:11.626Z,8.2
2022-10-29T03:50:27.956Z,10.4
2022-10-29T03:51:44.228Z,10.3
2022-10-29T03:53:00.538Z,11
2022-10-29T03:54:16.814Z,8.7
2022-10-29T03:55:33.110Z,9.6
2022-10-29T03:56:48.445Z,8.8
2022-10-29T03:58:04.731Z,11.1
2022-10-29T03:59:20.994Z,9.3
2022-10-29T04:00:37.289Z,9.2
2022-10-29T04:01:53.611Z,11.3
2022-10-29T04:03:09.881Z,9.1
2022-10-29T04:04:26.218Z,11
2022-10-29T04:05:42.480Z,11.1
2022-10-29T04:06:58.790Z,12.1
2022-10-29T04:08:15.082Z,11.2
2022-10-29T04:09:31.352Z,10.1
2022-10-29T04:10:47.641Z,11.4
2022-10-29T04:12:03.972Z,8.4
2022-10-29T04:13:19.275Z,9.1
2022-10-29T04:14:35.569Z,11.8
2022-10-29T04:15:51.837Z,8.7
2022-10-29T04:17:08.165Z,10.7
2022-10-29T04:18:24.432Z,11.2
2022-10-29T04:19:40.715Z,8.4
2022-10-29T04:20:57.042Z,9
2022-10-29T04:22:13.341Z,11.1
2022-10-29T04:23:29.633Z,10.7
2022-10-29T04:24:45.898Z,9.1
2022-10-29T04:26:02.190Z,9.5
2022-10-29T04:27:18.498Z,9.7
2022-10-29T04:28:34.776Z,10.6
2022-10-29T04:29:50.089Z,10.2
2022-10-29T04:31:06.410Z,9.1
2022-10-29T04:32:22.688Z,9.5
2022-10-29T04:33:38.974Z,10.8
2022-10-29T04:34:55.295Z,9
2022-10-29T04:36:11.575Z,11.5
2022-10-29T04:37:27.879Z,8.9
2022-10-29T04:38:44.149Z,10.6
2022-10-29T04:40:00.450Z,11.4
2022-10-29T04:41:16.748Z,7.9
2022-10-29T04:42:33.034Z,9.6
2022-10-29T04:43:49.330Z,10
2022-10-29T04:45:05.618Z,9.5
2022-10-29T04:46:20.933Z,9.9
2022-10-29T04:47:37.222Z,10.5
2022-10-29T04:48:53.529Z,8.5
2022-10-29T04:50:09.820Z,9.2
2022-10-29T04:51:26.112Z,9.6
2022-10-29T04:52:42.401Z,8.5
2022-10-29T04:53:58.692Z,10.1
2022-10-29T04:55:14.996Z,9.7
2022-10-29T04:56:31.277Z,9.7
2022-10-29T04:57:47.586Z,9.2
2022-10-29T04:59:03.869Z,11.5
2022-10-29T05:00:20.161Z,8.1
2022-10-29T05:01:36.464Z,9.4
2022-10-29T05:02:51.772Z,8.3
2022-10-29T05:04:08.065Z,7.5
2022-10-29T05:05:24.351Z,8.9
2022-10-29T05:06:40.651Z,7.9
2022-10-29T05:07:56.945Z,8.7
2022-10-29T05:09:13.243Z,7.7
2022-10-29T05:10:29.536Z,10.1
2022-10-29T05:11:45.824Z,12.1
2022-10-29T05:13:02.120Z,9.7
2022-10-29T05:14:18.423Z,12.6
2022-10-29T05:15:34.723Z,9.3
2022-10-29T05:16:51.005Z,7.2
2022-10-29T05:18:07.296Z,8.4
2022-10-29T05:19:22.605Z,12
2022-10-29T05:20:38.899Z,8.3
2022-10-29T05:21:55.204Z,10.1
2022-10-29T05:23:11.488Z,11.8
2022-10-29T05:24:27.733Z,9
2022-10-29T05:25:44.026Z,9.7
2022-10-29T05:26:59.303Z,9.4
2022-10-29T05:28:15.550Z,9.1
2022-10-29T05:29:31.782Z,9.1
2022-10-29T05:30:48.018Z,8.9
2022-10-29T05:32:04.264Z,9.2
2022-10-29T05:33:20.503Z,8.5
2022-10-29T05:34:36.743Z,7.9
2022-10-29T05:35:52.975Z,8.6
2022-10-29T05:37:09.227Z,8.2
2022-10-29T05:38:25.466Z,9.1
2022-10-29T05:39:41.703Z,8
2022-10-29T05:40:57.936Z,6.9
2022-10-29T05:42:14.181Z,10.2
2022-10-29T05:43:29.441Z,9.6
2022-10-29T05:44:45.681Z,9
2022-10-29T05:46:01.919Z,8.6
2022-10-29T05:47:18.163Z,9.6
2022-10-29T05:48:34.397Z,8.3
2022-10-29T05:49:50.635Z,8.6
2022-10-29T05:51:06.876Z,8.3
2022-10-29T05:52:23.116Z,9.2
2022-10-29T05:53:39.354Z,10.9
2022-10-29T05:54:55.601Z,7.5
2022-10-29T05:56:11.833Z,10.7
2022-10-29T05:57:28.077Z,10.6
2022-10-29T05:58:44.318Z,10.1
2022-10-29T05:59:59.586Z,8.1
2022-10-29T06:01:15.812Z,10
2022-10-29T06:02:32.049Z,8.3
2022-10-29T06:03:48.294Z,9.6
2022-10-29T06:05:04.532Z,10.2
2022-10-29T06:06:20.773Z,10.5
2022-10-29T06:07:37.025Z,8.9
2022-10-29T06:08:53.255Z,8.9
2022-10-29T06:10:09.489Z,8.8
2022-10-29T06:11:25.736Z,10.3
2022-10-29T06:12:41.970Z,10.4
2022-10-29T06:13:58.216Z,11.5
2022-10-29T06:15:14.456Z,9.9
2022-10-29T06:16:29.723Z,10.1
2022-10-29T06:17:45.952Z,8.8
2022-10-29T06:19:02.196Z,8.1
2022-10-29T06:20:18.433Z,10.5
2022-10-29T06:21:34.665Z,8.4
2022-10-29T06:22:50.911Z,8.3
2022-10-29T06:24:07.151Z,8.6
2022-10-29T06:25:23.393Z,10.9
2022-10-29T06:26:39.637Z,8.7
2022-10-29T06:27:55.882Z,8.6
2022-10-29T06:29:12.111Z,10
2022-10-29T06:30:28.350Z,9
2022-10-29T06:31:44.592Z,11.3
2022-10-29T06:32:59.863Z,12
2022-10-29T06:34:16.093Z,11.9
2022-10-29T06:35:32.337Z,9.7
2022-10-29T06:36:48.574Z,11.1
2022-10-29T06:38:04.810Z,9.9
2022-10-29T06:39:21.048Z,10.4
2022-10-29T06:40:37.300Z,9.6
2022-10-29T06:41:53.531Z,10.4
2022-10-29T06:43:09.770Z,9.4
2022-10-29T06:44:26.016Z,11.8
2022-10-29T06:45:42.245Z,11.6
2022-10-29T06:46:58.493Z,10.8
2022-10-29T06:48:14.729Z,10.7
2022-10-29T06:49:29.990Z,11.9
2022-10-29T06:50:46.230Z,12.3
2022-10-29T06:52:02.473Z,9
2022-10-29T06:53:18.723Z,13.6
2022-10-29T06:54:34.953Z,12
2022-10-29T06:55:51.187Z,11.6
2022-10-29T06:57:07.428Z,11.2
2022-10-29T06:58:23.680Z,13.3
2022-10-29T06:59:39.914Z,13.9
2022-10-29T07:00:56.152Z,11.2
2022-10-29T07:02:12.391Z,11.1
2022-10-29T07:03:28.622Z,14.8
2022-10-29T07:04:44.867Z,12.4
2022-10-29T07:06:00.120Z,14.3
2022-10-29T07:07:16.378Z,12.9
2022-10-29T07:08:32.601Z,12.2
2022-10-29T07:09:48.851Z,13
2022-10-29T07:11:05.084Z,13.2
2022-10-29T07:12:21.323Z,13
2022-10-29T07:13:37.572Z,12.9
2022-10-29T07:14:53.807Z,9.4
2022-10-29T07:16:10.057Z,11.4
2022-10-29T07:17:26.298Z,10.2
2022-10-29T07:18:42.537Z,9.5
2022-10-29T07:19:58.762Z,13.1
2022-10-29T07:21:15.001Z,12.2
2022-10-29T07:22:30.266Z,11.2
2022-10-29T07:23:46.504Z,10.6
2022-10-29T07:25:02.741Z,12.6
2022-10-29T07:26:18.984Z,11.2
2022-10-29T07:27:35.215Z,12.8
2022-10-29T07:28:51.456Z,11.4
2022-10-29T07:30:07.715Z,10.6
2022-10-29T07:31:23.944Z,11.1
2022-10-29T07:32:40.189Z,12.7
2022-10-29T07:33:56.431Z,10.3
2022-10-29T07:35:12.671Z,10.9
2022-10-29T07:36:28.914Z,11.2
2022-10-29T07:37:45.155Z,11.1
2022-10-29T07:39:00.396Z,11.1
2022-10-29T07:40:16.645Z,10.6
2022-10-29T07:41:32.883Z,11.4
2022-10-29T07:42:49.118Z,12.1
2022-10-29T07:44:05.356Z,12.3
2022-10-29T07:45:21.599Z,10.8
2022-10-29T07:46:37.841Z,11.8
2022-10-29T07:47:54.079Z,11.3
2022-10-29T07:49:10.329Z,11.6
2022-10-29T07:50:26.565Z,9.9
2022-10-29T07:51:42.800Z,12.3
2022-10-29T07:52:59.036Z,10.5
2022-10-29T07:54:15.274Z,9
2022-10-29T07:55:30.538Z,12.9
2022-10-29T07:56:46.780Z,10.7
2022-10-29T07:58:03.017Z,12.3
2022-10-29T07:59:19.253Z,12.1
2022-10-29T08:00:35.494Z,10.9
2022-10-29T08:01:51.744Z,9.7
2022-10-29T08:03:07.983Z,12.8
2022-10-29T08:04:24.212Z,9.6
2022-10-29T08:05:40.465Z,10.8
2022-10-29T08:06:56.703Z,11.6
2022-10-29T08:08:12.935Z,8.6
2022-10-29T08:09:29.172Z,11.5
2022-10-29T08:10:45.428Z,12
2022-10-29T08:12:00.678Z,10.1
2022-10-29T08:13:16.918Z,11.6
2022-10-29T08:14:33.145Z,10.2
2022-10-29T08:15:49.387Z,12.2
2022-10-29T08:17:05.642Z,9.5
2022-10-29T08:18:21.882Z,10.6
2022-10-29T08:19:38.111Z,10.7
2022-10-29T08:20:54.350Z,12.3
2022-10-29T08:22:10.599Z,9.8
2022-10-29T08:23:26.830Z,8.6
2022-10-29T08:24:43.080Z,12
2022-10-29T08:25:59.311Z,13.5
2022-10-29T08:27:15.550Z,11.6
2022-10-29T08:28:30.816Z,13.2
2022-10-29T08:29:47.047Z,11.8
2022-10-29T08:31:03.295Z,9.5
2022-10-29T08:32:19.522Z,10.8
2022-10-29T08:33:35.761Z,11.6
2022-10-29T08:34:52.018Z,12.8
2022-10-29T08:36:08.248Z,11.7
2022-10-29T08:37:24.492Z,10.9
2022-10-29T08:38:40.725Z,10.4
2022-10-29T08:39:56.969Z,11
2022-10-29T08:41:13.201Z,11
2022-10-29T08:42:29.442Z,8.4
2022-10-29T08:43:45.696Z,12.5
2022-10-29T08:45:00.936Z,10.3
2022-10-29T08:46:17.177Z,11.7
2022-10-29T08:47:33.433Z,10.6
2022-10-29T08:48:49.669Z,9.3
2022-10-29T08:50:05.902Z,13.5
2022-10-29T08:51:22.153Z,11.8
2022-10-29T08:52:38.387Z,8.5
2022-10-29T08:53:54.621Z,11.1
2022-10-29T08:55:10.859Z,12.8
2022-10-29T08:56:27.099Z,9.9
2022-10-29T08:57:43.347Z,10.8
2022-10-29T08:58:59.594Z,13.3
2022-10-29T09:00:15.824Z,10.4
2022-10-29T09:01:31.073Z,12.1
2022-10-29T09:02:47.319Z,9.3
2022-10-29T09:04:03.558Z,12.8
2022-10-29T09:05:19.805Z,9.2
2022-10-29T09:06:36.035Z,9.7
2022-10-29T09:07:52.281Z,7.7
2022-10-29T09:09:08.517Z,12.5
2022-10-29T09:10:24.770Z,11.2
2022-10-29T09:11:41.001Z,11.7
2022-10-29T09:12:57.238Z,12.2
2022-10-29T09:14:13.476Z,7.3
2022-10-29T09:15:29.732Z,10.1
2022-10-29T09:16:45.967Z,11
2022-10-29T09:18:01.224Z,10.7
2022-10-29T09:19:17.451Z,9.5
2022-10-29T09:20:33.690Z,10.8
2022-10-29T09:21:49.932Z,10.3
2022-10-29T09:23:06.187Z,12.1
2022-10-29T09:24:22.434Z,11.2
2022-10-29T09:25:38.664Z,9.8
2022-10-29T09:26:54.898Z,9.8
2022-10-29T09:28:11.134Z,10.3
2022-10-29T09:29:27.371Z,13.6
2022-10-29T09:30:43.625Z,11.4
2022-10-29T09:31:59.864Z,11.4
2022-10-29T09:33:16.095Z,12.4
2022-10-29T09:34:31.362Z,10
2022-10-29T09:35:47.590Z,10.1
2022-10-29T09:37:03.829Z,8.4
2022-10-29T09:38:20.086Z,10.8
2022-10-29T09:39:36.310Z,11.8
2022-10-29T09:40:52.558Z,10.6
2022-10-29T09:42:07.821Z,9.1
2022-10-29T09:43:24.062Z,11.8
2022-10-29T09:44:40.295Z,14.7
2022-10-29T09:45:56.537Z,13
2022-10-29T09:47:12.771Z,10.2
2022-10-29T09:48:29.030Z,10.9
2022-10-29T09:49:45.252Z,9.8
2022-10-29T09:51:01.503Z,11.7
2022-10-29T09:52:17.732Z,10.5
2022-10-29T09:53:33.986Z,12.2
2022-10-29T09:54:50.228Z,10.9
2022-10-29T09:56:06.451Z,14.6
2022-10-29T09:57:22.691Z,11.6
2022-10-29T09:58:37.959Z,9.8
2022-10-29T09:59:54.196Z,10.3
2022-10-29T10:01:10.444Z,9.5
2022-10-29T10:02:26.664Z,9.9
2022-10-29T10:03:42.915Z,10.9
2022-10-29T10:04:59.158Z,9.7
2022-10-29T10:06:15.390Z,11.2
2022-10-29T10:07:31.635Z,11
2022-10-29T10:08:47.867Z,11.2
2022-10-29T10:10:04.114Z,12.5
2022-10-29T10:11:20.357Z,10.7
2022-10-29T10:12:36.597Z,12
2022-10-29T10:13:52.834Z,10.3
2022-10-29T10:15:08.094Z,11.7
2022-10-29T10:16:24.322Z,10.8
2022-10-29T10:17:40.569Z,13.9
2022-10-29T10:18:56.802Z,9.5
2022-10-29T10:20:13.051Z,12.8
2022-10-29T10:21:29.289Z,12.3
2022-10-29T10:22:45.530Z,14
2022-10-29T10:24:01.762Z,11.6
2022-10-29T10:25:18.021Z,9.3
2022-10-29T10:26:34.260Z,14.3
2022-10-29T10:27:50.480Z,11.9
2022-10-29T10:29:06.723Z,13.5
2022-10-29T10:30:22.962Z,9.9
2022-10-29T10:31:38.224Z,12.5
2022-10-29T10:32:54.464Z,14.3
2022-10-29T10:34:10.704Z,12.7
2022-10-29T10:35:26.944Z,12.1
2022-10-29T10:36:43.179Z,13.7
2022-10-29T10:37:59.426Z,13.8
2022-10-29T10:39:15.661Z,11.5
2022-10-29T10:40:31.907Z,11.3
2022-10-29T10:41:48.149Z,11.6
2022-10-29T10:43:04.390Z,11.5
2022-10-29T10:44:20.628Z,9.2
2022-10-29T10:45:36.855Z,13.5
2022-10-29T10:46:53.104Z,11
2022-10-29T10:48:08.356Z,14.7
2022-10-29T10:49:24.610Z,9.8
2022-10-29T10:50:40.840Z,10.9
2022-10-29T10:51:57.081Z,11.1
2022-10-29T10:53:13.324Z,11.7
2022-10-29T10:54:29.555Z,10.2
2022-10-29T10:55:45.808Z,11.1
2022-10-29T10:57:02.038Z,15.9
2022-10-29T10:58:18.273Z,13.1
2022-10-29T10:59:34.511Z,13.5
2022-10-29T11:00:50.767Z,12.3
2022-10-29T11:02:06.994Z,12.1
2022-10-29T11:03:23.238Z,14.1
2022-10-29T11:04:38.498Z,9.8
2022-10-29T11:05:54.731Z,9.7
2022-10-29T11:07:10.973Z,15.6
2022-10-29T11:08:27.218Z,12.1
2022-10-29T11:09:43.452Z,12.5
2022-10-29T11:10:59.684Z,9.7
2022-10-29T11:12:15.938Z,12.9
2022-10-29T11:13:32.167Z,10.9
2022-10-29T11:14:48.404Z,11.1
2022-10-29T11:16:04.658Z,16.2
2022-10-29T11:17:20.888Z,11.9
2022-10-29T11:18:37.124Z,11.7
2022-10-29T11:19:53.372Z,12.3
2022-10-29T11:21:08.628Z,14.8
2022-10-29T11:22:24.865Z,12.7
2022-10-29T11:23:41.104Z,10.1
2022-10-29T11:24:57.343Z,10.5
2022-10-29T11:26:13.589Z,9.6
2022-10-29T11:27:29.820Z,11.2
2022-10-29T11:28:46.062Z,14.3
2022-10-29T11:30:02.312Z,10.2
2022-10-29T11:31:18.539Z,12.9
2022-10-29T11:32:34.796Z,11.7
2022-10-29T11:33:51.021Z,13.1
2022-10-29T11:35:07.265Z,12.4
2022-10-29T11:36:23.501Z,11.1
2022-10-29T11:37:38.767Z,10
2022-10-29T11:38:55.002Z,14.6
2022-10-29T11:40:11.246Z,12
2022-10-29T11:41:27.489Z,10.7
2022-10-29T11:42:43.725Z,11.4
2022-10-29T11:43:59.961Z,14
2022-10-29T11:45:16.206Z,12.4
2022-10-29T11:46:32.437Z,10.9
2022-10-29T11:47:48.692Z,11.8
2022-10-29T11:49:04.923Z,11.1
2022-10-29T11:50:21.172Z,13.4
2022-10-29T11:51:37.404Z,11
2022-10-29T11:52:53.649Z,12.2
2022-10-29T11:54:08.891Z,12.3
2022-10-29T11:55:25.148Z,12.8
2022-10-29T11:56:41.372Z,13.2
2022-10-29T11:57:57.628Z,15.6
2022-10-29T11:59:13.857Z,13.3
2022-10-29T12:00:30.091Z,13.8
2022-10-29T12:01:46.333Z,12.3
2022-10-29T12:03:02.572Z,15.5
2022-10-29T12:04:18.823Z,12.7
2022-10-29T12:05:35.052Z,13.8
2022-10-29T12:06:51.295Z,12.3
2022-10-29T12:08:07.540Z,15.1
2022-10-29T12:09:23.779Z,13.3
2022-10-29T12:10:39.030Z,15
2022-10-29T12:11:55.277Z,13.2
2022-10-29T12:13:11.506Z,13.1
2022-10-29T12:14:27.753Z,14.3
2022-10-29T12:15:44.004Z,13.9
2022-10-29T12:17:00.242Z,14.1
2022-10-29T12:18:16.477Z,11.8
2022-10-29T12:19:32.708Z,12.7
2022-10-29T12:20:48.949Z,11.4
2022-10-29T12:22:05.192Z,15.3
2022-10-29T12:23:21.442Z,11.3
2022-10-29T12:24:37.676Z,13.2
2022-10-29T12:25:53.922Z,11.9
2022-10-29T12:27:09.167Z,13.3
2022-10-29T12:28:25.419Z,13.8
2022-10-29T12:29:41.644Z,11.1
2022-10-29T12:30:57.883Z,14.9
2022-10-29T12:32:14.135Z,13.5
2022-10-29T12:33:30.367Z,14.7
2022-10-29T12:34:46.611Z,13.1
2022-10-29T12:36:02.855Z,15.3
2022-10-29T12:37:19.090Z,11.4
2022-10-29T12:38:35.332Z,16.1
2022-10-29T12:39:51.565Z,13.8
2022-10-29T12:41:07.821Z,12.7
2022-10-29T12:42:24.046Z,12.6
2022-10-29T12:43:39.311Z,11.9
2022-10-29T12:44:55.545Z,9.8
2022-10-29T12:46:11.786Z,12.8
2022-10-29T12:47:28.019Z,14.9
2022-10-29T12:48:44.276Z,11.5
2022-10-29T12:50:00.518Z,16.4
2022-10-29T12:51:16.740Z,13.4
2022-10-29T12:52:32.981Z,13.2
2022-10-29T12:53:49.224Z,15
2022-10-29T12:55:05.475Z,12.4
2022-10-29T12:56:21.702Z,12.9
2022-10-29T12:57:37.953Z,16.6
2022-10-29T12:58:54.184Z,13.8
2022-10-29T13:00:09.000Z,15.1
2022-10-29T13:01:25.684Z,13.4
2022-10-29T13:02:41.926Z,14.4
2022-10-29T13:03:58.161Z,14.4
2022-10-29T13:05:14.413Z,17.6
2022-10-29T13:06:30.649Z,10.2
2022-10-29T13:07:46.882Z,12
2022-10-29T13:09:03.117Z,14.2
2022-10-29T13:10:19.365Z,15.8
2022-10-29T13:11:35.605Z,14.7
2022-10-29T13:12:51.854Z,13.8
2022-10-29T13:14:08.082Z,12.3
2022-10-29T13:15:24.319Z,10.5
2022-10-29T13:16:39.586Z,12.5
2022-10-29T13:17:55.823Z,12.2
2022-10-29T13:19:12.056Z,12.2
2022-10-29T13:20:28.301Z,11.8
2022-10-29T13:21:44.550Z,13.1
2022-10-29T13:23:00.790Z,14.4
2022-10-29T13:24:17.023Z,12.4
2022-10-29T13:25:33.268Z,14.5
2022-10-29T13:26:49.497Z,13.5
2022-10-29T13:28:05.753Z,12.6
2022-10-29T13:29:21.993Z,14.2
2022-10-29T13:30:38.227Z,13.8
2022-10-29T13:31:54.461Z,14.3
2022-10-29T13:33:09.723Z,14.7
2022-10-29T13:34:25.954Z,14
2022-10-29T13:35:42.203Z,12.8
2022-10-29T13:36:58.446Z,12.9
2022-10-29T13:38:14.674Z,13.7
2022-10-29T13:39:30.935Z,13.3
2022-10-29T13:40:47.155Z,15.2
2022-10-29T13:42:03.409Z,13.2
2022-10-29T13:43:19.634Z,14.7
2022-10-29T13:44:35.874Z,14
2022-10-29T13:45:52.128Z,12.4
2022-10-29T13:47:08.368Z,14.4
2022-10-29T13:48:24.605Z,12.2
2022-10-29T13:49:39.855Z,12.7
2022-10-29T13:50:56.101Z,13.2
2022-10-29T13:52:12.338Z,18.4
2022-10-29T13:53:28.570Z,16.4
2022-10-29T13:54:44.818Z,13.8
2022-10-29T13:56:01.066Z,14.6
2022-10-29T13:57:16.327Z,13.8
2022-10-29T13:58:32.567Z,12.3
2022-10-29T13:59:48.811Z,14.8
2022-10-29T14:01:05.053Z,13.8
2022-10-29T14:02:21.286Z,10.4
2022-10-29T14:03:37.514Z,11
2022-10-29T14:04:53.772Z,12
2022-10-29T14:06:10.011Z,11.6
2022-10-29T14:07:26.245Z,16.1
2022-10-29T14:08:42.484Z,12
2022-10-29T14:09:58.728Z,11.5
2022-10-29T14:11:14.959Z,10.9
2022-10-29T14:12:31.203Z,13.8
2022-10-29T14:13:46.456Z,13.5
2022-10-29T14:15:02.708Z,12.6
2022-10-29T14:16:18.935Z,12.7
2022-10-29T14:17:35.172Z,11.3
2022-10-29T14:18:51.421Z,16
2022-10-29T14:20:07.660Z,15.9
2022-10-29T14:21:23.896Z,18
2022-10-29T14:22:40.146Z,16.3
2022-10-29T14:23:56.374Z,16.2
2022-10-29T14:25:12.621Z,14.9
2022-10-29T14:26:28.866Z,12.1
2022-10-29T14:27:45.104Z,14.2
2022-10-29T14:29:01.342Z,12.5
2022-10-29T14:30:16.602Z,12.9
2022-10-29T14:31:32.828Z,14.9
2022-10-29T14:32:49.083Z,12.6
2022-10-29T14:34:05.320Z,14.3
2022-10-29T14:35:21.551Z,16.5
2022-10-29T14:36:37.796Z,12.1
2022-10-29T14:37:54.029Z,14.3
2022-10-29T14:39:10.284Z,16.4
2022-10-29T14:40:26.525Z,13.2
2022-10-29T14:41:42.760Z,88.9
2022-10-29T14:42:58.989Z,100.1
2022-10-29T14:44:15.235Z,15.7
2022-10-29T14:45:31.477Z,13.1
2022-10-29T14:46:46.733Z,14.2
2022-10-29T14:48:02.966Z,13.7
2022-10-29T14:49:19.215Z,15.3
2022-10-29T14:50:35.462Z,14.8
2022-10-29T14:51:51.699Z,16.1
2022-10-29T14:53:07.944Z,16.6
2022-10-29T14:54:24.185Z,14.5
2022-10-29T14:55:40.411Z,35.5
2022-10-29T14:56:56.647Z,27.6
2022-10-29T14:58:12.889Z,26.2
2022-10-29T14:59:29.136Z,28.5
2022-10-29T15:00:45.376Z,17.8
2022-10-29T15:02:01.616Z,21.7
2022-10-29T15:03:16.880Z,66.1
2022-10-29T15:04:33.116Z,140.4
2022-10-29T15:05:49.347Z,59.1
2022-10-29T15:07:05.595Z,52.5
2022-10-29T15:08:21.838Z,33.3
2022-10-29T15:09:38.063Z,29.8
2022-10-29T15:10:54.321Z,24.5
2022-10-29T15:12:10.551Z,28.2
2022-10-29T15:13:26.793Z,23.5
2022-10-29T15:14:43.040Z,23.3
2022-10-29T15:15:59.268Z,23.2
2022-10-29T15:17:15.510Z,19.7
2022-10-29T15:19:47.986Z,21.1
2022-10-29T15:21:03.246Z,22.2
2022-10-29T15:22:19.494Z,26.5
2022-10-29T15:23:35.719Z,25.3
2022-10-29T15:24:51.984Z,26.4
2022-10-29T15:26:08.215Z,25.6
2022-10-29T15:27:24.446Z,26.8
2022-10-29T15:28:40.686Z,23.9
2022-10-29T15:29:56.936Z,26.3
2022-10-29T15:31:13.163Z,25
2022-10-29T15:32:29.410Z,23.7
2022-10-29T15:33:45.661Z,25.3
2022-10-29T15:35:01.890Z,25.4
2022-10-29T15:36:18.132Z,25.2
2022-10-29T15:37:33.377Z,24.4
2022-10-29T15:38:49.615Z,18.6
2022-10-29T15:40:05.862Z,22
2022-10-29T15:41:22.097Z,20.1
2022-10-29T15:42:38.337Z,20.1
2022-10-29T15:43:54.588Z,20
2022-10-29T15:45:10.820Z,19.2
2022-10-29T15:46:27.064Z,15.1
2022-10-29T15:47:43.298Z,19.1
2022-10-29T15:48:59.554Z,16.9
2022-10-29T15:50:15.790Z,15.3
2022-10-29T15:51:32.030Z,19.2
2022-10-29T15:52:48.269Z,16.2
2022-10-29T15:54:03.515Z,18.8
2022-10-29T15:55:19.758Z,18.1
2022-10-29T15:56:36.011Z,20.1
2022-10-29T15:57:52.234Z,20.1
2022-10-29T15:59:08.484Z,18.8
2022-10-29T16:00:24.717Z,19.5
2022-10-29T16:01:40.962Z,20
2022-10-29T16:02:57.199Z,17.1
2022-10-29T16:04:13.430Z,22.2
2022-10-29T16:05:29.674Z,20.3
2022-10-29T16:06:45.926Z,24.3
2022-10-29T16:08:02.166Z,20.4
2022-10-29T16:09:18.399Z,18.4
2022-10-29T16:10:33.648Z,21.5
2022-10-29T16:11:49.904Z,18
2022-10-29T16:13:06.139Z,17.1
2022-10-29T16:14:22.383Z,18.1
2022-10-29T16:15:38.675Z,16.8
2022-10-29T16:16:54.953Z,20.8
2022-10-29T16:18:11.255Z,17.9
2022-10-29T16:19:27.556Z,22.7
2022-10-29T16:20:43.848Z,21.7
2022-10-29T16:22:00.140Z,23.1
2022-10-29T16:23:16.424Z,28.5
2022-10-29T16:24:32.721Z,23.6
2022-10-29T16:25:49.014Z,29
2022-10-29T16:27:04.340Z,26.7
2022-10-29T16:28:20.633Z,27.9
2022-10-29T16:29:36.921Z,36.1
2022-10-29T16:30:53.205Z,30.7
2022-10-29T16:32:09.506Z,31.2
2022-10-29T16:33:25.806Z,29.7
2022-10-29T16:34:42.098Z,31.6
2022-10-29T16:35:58.383Z,32.2
2022-10-29T16:37:14.683Z,31.7
2022-10-29T16:38:30.990Z,32.4
2022-10-29T16:39:47.275Z,31
2022-10-29T16:41:03.557Z,27.5
2022-10-29T16:42:19.855Z,28.2
2022-10-29T16:43:35.160Z,32
2022-10-29T16:44:51.467Z,27.6
2022-10-29T16:46:07.763Z,27
2022-10-29T16:47:24.040Z,30.3
2022-10-29T16:48:40.348Z,31.7
2022-10-29T16:49:56.642Z,37.7
2022-10-29T16:51:12.948Z,32
2022-10-29T16:52:29.235Z,29.2
2022-10-29T16:53:45.515Z,29.3
2022-10-29T16:55:01.815Z,30.2
2022-10-29T16:56:18.124Z,29.2
2022-10-29T16:57:34.396Z,34.5
2022-10-29T16:58:50.694Z,30
2022-10-29T17:00:06.014Z,31.3
2022-10-29T17:01:22.301Z,25.8
2022-10-29T17:02:38.598Z,28.7
2022-10-29T17:03:54.880Z,29.1
2022-10-29T17:05:11.174Z,28
2022-10-29T17:06:27.471Z,27.9
2022-10-29T17:07:43.775Z,28.2
2022-10-29T17:09:00.060Z,29.9
2022-10-29T17:10:16.350Z,28.4
2022-10-29T17:11:32.641Z,28.9